Tiempo atmosférico en la estación meteorológica de Cenicero, La Rioja (429 m.)



Fecha
DESCASC
Temp. máxima en grados centígrados (hora)
DESCASC
Temp. mínima en grados centígrados (hora)
DESCASC
Temp. media en grados centígrados
DESCASC
Racha de viento máxima en m/sg (hora)
DESCASC
Velocidad máxima media en intervalos de 10 minutos(hora)
DESCASC
Precipitaciones diarias en mm
DESCASC
Precipitaciones de 00:00 a 06:00 en mm
DESCASC
Precipitaciones de 06:00 a 12:00 en mm
DESCASC
Precipitaciones de 12:00 a 18:00 en mm
DESCASC
Precipitaciones de 18:00 a 24:00 en mm
DESCASC
18-01-2018 13.6 (17:10) -0.2 (09:00) 6.7 5.83 (19:10) 3.89 (19:10) 0 0 0 0 0
17-01-2018 11.5 (00:00) 3.8 (23:50) 7.6 11.11 (03:00) 6.39 (03:00) 0 0 0 0 0
16-01-2018 12.4 (17:10) 6.5 (04:00) 9.4 12.5 (17:10) 7.78 (14:00) 0 0 0 0 0
15-01-2018 7.5 (16:40) 2.3 (07:10) 4.9 9.17 (17:20) 5 (15:20) 0 0 0 0 0
14-01-2018 7.5 (14:50) 2.4 (00:00) 5 8.61 (14:50) 5 (14:40) 1.4 1.4 0 0 0
13-01-2018 4.3 (17:40) 0.8 (00:00) 2.6 7.78 (12:10) 4.44 (12:10) 3.8 0 0 0 3.8
12-01-2018 9.8 (15:00) 2.3 (00:00) 6.1 5.83 (12:40) 3.61 (13:00) 0.6 0.4 0.2 0 0
11-01-2018 8 (13:50) 2.6 (00:00) 5.3 11.94 (14:10) 7.22 (11:20) 4.6 0 0 0.6 4
10-01-2018 7.6 (13:40) 1.2 (00:00) 4.4 10.56 (22:20) 6.39 (23:00) 0.6 0 0 0.6 0
09-01-2018 3.1 (23:40) -2.3 (-00:0) 0.4 6.67 (01:00) 3.61 (00:20) 0 0 0 0 0
08-01-2018 6.4 (16:50) -0.3 (00:00) 3.1 8.06 (21:50) 5 (21:50) 0 0 0 0 0
07-01-2018 4.5 (15:30) 0.8 (00:00) 2.7 7.22 (15:40) 4.44 (15:40) 6.4 5.4 1 0 0
06-01-2018 6.6 (00:00) 0.9 (00:00) 3.7 7.78 (15:50) 4.44 (15:50) 27.2 7.2 1.8 7.8 10.4
05-01-2018 12.9 (11:40) 6.6 (00:00) 9.7 12.78 (03:20) 6.11 (03:20) 8.2 0 0 0.2 8
04-01-2018 16.1 (14:40) 11.3 (23:59) 13.7 15 (15:40) 8.89 (15:10) 0 0 0 0 0
03-01-2018 16.8 (16:30) 12.2 (00:00) 14.5 11.67 (13:20) 7.22 (13:50) 0 0 0 0 0
02-01-2018 14 (16:40) 9.4 (00:00) 11.7 15.56 (17:40) 8.33 (15:40) 0.4 0 0 0.4 0
01-01-2018 13.1 (15:40) 2.8 (00:00) 8 19.72 (15:10) 10.28 (14:50) 0.6 0 0 0 0.6
31-12-2017 10.5 (14:50) 2.1 (00:00) 6.3 9.17 (22:30) 5.56 (18:10) 4.8 0 0 2.4 2.4
30-12-2017 16.2 (15:40) 6.1 (00:00) 11.2 14.44 (14:40) 7.78 (10:50) 0 0 0 0 0
29-12-2017 14.8 (15:50) 6.5 (00:00) 10.7 10.28 (13:10) 6.11 (12:20) 1.2 0 1.2 0 0
28-12-2017 11.6 (16:40) 4.9 (00:00) 8.3 13.61 (18:30) 8.06 (18:30) 1 0.2 0.6 0.2 0
27-12-2017 8.2 (01:40) 3.8 (00:00) 6 24.72 (01:40) 11.11 (01:40) 7.2 7 0 0 0.2
26-12-2017 8.4 (14:20) 1.1 (00:00) 4.7 6.11 (14:50) 3.61 (15:30) 2.8 2.8 0 0 0
25-12-2017 2.8 (00:00) 0.6 (00:00) 1.7 7.78 (18:10) 4.17 (17:20) 0.2 0 0 0 0.2
24-12-2017 8.1 (15:40) 2.8 (00:00) 5.5 3.33 (15:10) 1.67 (15:10) 0 0 0 0 0
23-12-2017 10.6 (14:00) 3.1 (00:00) 6.9 7.5 (07:00) 4.17 (04:50) 0 0 0 0 0
22-12-2017 9.1 (15:40) 3.2 (00:00) 6.2 9.72 (13:00) 6.11 (13:00) 0 0 0 0 0
21-12-2017 12 (16:40) 4 (00:00) 8 7.5 (12:40) 4.72 (12:50) 0 0 0 0 0

Gráficas

Temp. máximas Temp. mínimas Temp. medias Precipitaciones Rachas de viento máximas Velocidades máximas media en intervalos de 10 minutos

Datos horarios

Fecha y hora oficial Temperatura (ºC) Velocidad del viento (km/h) Dirección del viento Racha (km/h) Dirección de racha Precipitación (mm) Presión (hPa) Tendencia (hPa) Humedad (%)
2018-01-19 23:00:00 8.3 18 Oeste 27 Oeste 0 -- -- 67
2018-01-19 22:00:00 8.2 17 Oeste 28 Oeste 0 -- -- 66
2018-01-19 21:00:00 7.8 14 Oeste 22 Sudoeste 0 -- -- 69
2018-01-19 20:00:00 7.7 8 Sudoeste 18 Oeste 0 -- -- 72
2018-01-19 19:00:00 8.9 12 Oeste 23 Sudoeste 0 -- -- 70
2018-01-19 18:00:00 9.8 9 Noroeste 26 Oeste 0 -- -- 76
2018-01-19 17:00:00 10.7 15 Oeste 26 Oeste 0 -- -- 72
2018-01-19 16:00:00 10.4 11 Noroeste 22 Noroeste 0 -- -- 76
2018-01-19 15:00:00 10.8 12 Noroeste 35 Oeste 0 -- -- 82
2018-01-19 14:00:00 12.7 12 Noroeste 29 Noroeste 0 -- -- 68
2018-01-19 13:00:00 11.9 9 Noroeste 16 Oeste 0 -- -- 74
2018-01-19 12:00:00 8.8 8 Noroeste 15 Noroeste 0 -- -- 80
2018-01-19 11:00:00 6.6 5 Oeste 11 Oeste 0 -- -- 87
2018-01-19 10:00:00 3.4 6 Oeste 16 Oeste 0 -- -- 95
2018-01-19 09:00:00 3.3 6 Oeste 12 Oeste 0 -- -- 95
2018-01-19 08:00:00 2.2 8 Oeste 16 Oeste 0 -- -- 95
2018-01-19 07:00:00 2.2 6 Noroeste 13 Oeste 0 -- -- 94
2018-01-19 06:00:00 2.1 5 Oeste 9 Oeste 0 -- -- 93
2018-01-19 05:00:00 2.5 6 Oeste 11 Noroeste 0 -- -- 92
2018-01-19 04:00:00 3.3 2 Oeste 9 Sudoeste 0 -- -- 90
2018-01-19 03:00:00 3.7 4 Sudoeste 10 Sudoeste 0 -- -- 89
2018-01-19 02:00:00 4.5 4 Sudoeste 15 Oeste 0 -- -- 87
2018-01-19 01:00:00 5.4 7 Noroeste 18 Sudoeste 0 -- -- 86
2018-01-19 00:00:00 6.2 7 Sudoeste 16 Sudoeste 0 -- -- 84
2018-01-18 23:00:00 6.8 8 Sudoeste 17 Sudoeste 0 -- -- 78
2018-01-18 22:00:00 7.2 8 Oeste 15 Sudoeste 0 -- -- 76
2018-01-18 21:00:00 7.7 4 Noroeste 8 Noroeste 0 -- -- 76
2018-01-18 20:00:00 9.4 5 Sudoeste 21 Sudoeste 0 -- -- 68
2018-01-18 19:00:00 10.6 11 Oeste 20 Oeste 0 -- -- 63
2018-01-18 18:00:00 11.9 5 Sudoeste 18 Oeste 0 -- -- 61
2018-01-18 17:00:00 13.5 10 Oeste 15 Oeste 0 -- -- 56
2018-01-18 16:00:00 13 6 Oeste 18 Oeste 0 -- -- 59
2018-01-18 15:00:00 11.5 6 Oeste 15 Oeste 0 -- -- 65
2018-01-18 14:00:00 10.5 8 Noroeste 13 Noroeste 0 -- -- 65
2018-01-18 13:00:00 9.1 9 Oeste 14 Oeste 0 -- -- 70
2018-01-18 12:00:00 7.9 5 Oeste 11 Oeste 0 -- -- 72
2018-01-18 11:00:00 4.6 0 Calma 4 Este 0 -- -- 89
2018-01-18 10:00:00 0.5 0 Calma 2 Este 0 -- -- 97
2018-01-18 09:00:00 -0.2 0 Calma 5 Oeste 0 -- -- 96
2018-01-18 08:00:00 0.2 0 Calma 4 Oeste 0 -- -- 96
2018-01-18 07:00:00 0.2 3 Oeste 6 Oeste 0 -- -- 96
2018-01-18 06:00:00 0.4 0 Calma 6 Oeste 0 -- -- 95
2018-01-18 05:00:00 0.6 2 Oeste 7 Sudoeste 0 -- -- 94
2018-01-18 04:00:00 1.3 0 Calma 7 Oeste 0 -- -- 94
2018-01-18 03:00:00 1.7 2 Oeste 5 Sudoeste 0 -- -- 92
2018-01-18 02:00:00 2.2 0 Calma 4 Oeste 0 -- -- 89
2018-01-18 01:00:00 3.1 3 Oeste 8 Sudoeste 0 -- -- 88
2018-01-18 00:00:00 3.8 3 Oeste 9 Sudoeste 0 -- -- 86
2018-01-17 23:00:00 4.4 0 Calma 4 Sudoeste 0 -- -- 86
2018-01-17 22:00:00 5.4 0 Calma 6 Sudoeste 0 -- -- 81
2018-01-17 21:00:00 6.3 6 Sudoeste 15 Sur 0 -- -- 80
2018-01-17 20:00:00 7.2 5 Oeste 10 Noroeste 0 -- -- 79
2018-01-17 19:00:00 8.6 5 Noroeste 13 Norte 0 -- -- 73
2018-01-17 18:00:00 9.8 5 Oeste 18 Noroeste 0 -- -- 66
2018-01-17 17:00:00 10.6 10 Noroeste 21 Noroeste 0 -- -- 63
2018-01-17 16:00:00 10.8 10 Noroeste 31 Noroeste 0 -- -- 61
2018-01-17 15:00:00 10.8 16 Noroeste 35 Oeste 0 -- -- 58
2018-01-17 14:00:00 10.3 18 Oeste 32 Oeste 0 -- -- 63
2018-01-17 13:00:00 9.6 17 Oeste 30 Oeste 0 -- -- 70
2018-01-17 12:00:00 9.9 16 Noroeste 34 Noroeste 0 -- -- 69
2018-01-17 11:00:00 10.1 15 Noroeste 26 Noroeste 0 -- -- 65
2018-01-17 10:00:00 8.7 15 Oeste 30 Oeste 0 -- -- 72
2018-01-17 09:00:00 8.6 14 Oeste 25 Oeste 0 -- -- 73
2018-01-17 08:00:00 9.4 14 Oeste 30 Oeste 0 -- -- 75
2018-01-17 07:00:00 9.2 11 Oeste 28 Oeste 0 -- -- 79
2018-01-17 06:00:00 9.6 17 Oeste 32 Sudoeste 0 -- -- 80
2018-01-17 05:00:00 9.9 15 Oeste 32 Oeste 0 -- -- 80
2018-01-17 04:00:00 10.5 18 Oeste 37 Oeste 0 -- -- 78
2018-01-17 03:00:00 10.9 23 Oeste 40 Oeste 0 -- -- 76
2018-01-17 02:00:00 11.2 22 Oeste 38 Oeste 0 -- -- 76
2018-01-17 01:00:00 10.9 15 Noroeste 39 Oeste 0 -- -- 78
2018-01-17 00:00:00 11.5 19 Oeste 33 Oeste 0 -- -- 77
2018-01-16 23:00:00 10.2 8 Oeste 18 Oeste 0 -- -- 82
2018-01-16 22:00:00 11 9 Sudoeste 33 Oeste 0 -- -- 78
2018-01-16 21:00:00 12.2 19 Oeste 35 Oeste 0 -- -- 75
2018-01-16 20:00:00 10.6 10 Oeste 19 Oeste 0 -- -- 78
2018-01-16 19:00:00 10.7 8 Oeste 19 Oeste 0 -- -- 79
2018-01-16 18:00:00 11.9 14 Oeste 45 Oeste 0 -- -- 75
2018-01-16 17:00:00 12.3 23 Oeste 43 Noroeste 0 -- -- 73
2018-01-16 16:00:00 12.2 22 Noroeste 39 Noroeste 0 -- -- 74
2018-01-16 15:00:00 11.9 18 Noroeste 41 Noroeste 0 -- -- 75
2018-01-16 14:00:00 11.1 28 Noroeste 43 Noroeste 0 -- -- 75
2018-01-16 13:00:00 11 24 Noroeste 41 Oeste 0 -- -- 76
2018-01-16 12:00:00 10.5 18 Oeste 32 Oeste 0 -- -- 76
2018-01-16 11:00:00 9.6 17 Oeste 31 Oeste 0 -- -- 78
2018-01-16 10:00:00 7.9 14 Oeste 26 Oeste 0 -- -- 82
2018-01-16 09:00:00 7.2 13 Oeste 28 Oeste 0 -- -- 83
2018-01-16 08:00:00 7.4 13 Oeste 36 Oeste 0 -- -- 80
2018-01-16 07:00:00 7.6 21 Oeste 40 Oeste 0 -- -- 78
2018-01-16 06:00:00 7.5 21 Oeste 40 Oeste 0 -- -- 77
2018-01-16 05:00:00 7.6 10 Oeste 36 Oeste 0 -- -- 75
2018-01-16 04:00:00 6.5 8 Sudoeste 22 Oeste 0 -- -- 74
2018-01-16 03:00:00 7.1 15 Oeste 26 Oeste 0 -- -- 73
2018-01-16 02:00:00 6.8 14 Oeste 22 Oeste 0 -- -- 73
2018-01-16 01:00:00 7.2 11 Oeste 25 Noroeste 0 -- -- 70
2018-01-16 00:00:00 6.8 5 Oeste 19 Oeste 0 -- -- 73
2018-01-15 23:00:00 7.3 11 Oeste 20 Oeste 0 -- -- 71
2018-01-15 22:00:00 7.2 12 Oeste 22 Oeste 0 -- -- 70
2018-01-15 21:00:00 7.1 9 Noroeste 22 Noroeste 0 -- -- 72
2018-01-15 20:00:00 6.8 14 Oeste 30 Oeste 0 -- -- 74
2018-01-15 19:00:00 6.9 12 Noroeste 28 Oeste 0 -- -- 73
2018-01-15 18:00:00 6.8 16 Oeste 33 Noroeste 0 -- -- 72
2018-01-15 17:00:00 7.2 15 Noroeste 26 Noroeste 0 -- -- 70
2018-01-15 16:00:00 7.3 9 Noroeste 32 Oeste 0 -- -- 72
2018-01-15 15:00:00 7.2 16 Noroeste 30 Noroeste 0 -- -- 72
2018-01-15 14:00:00 6.2 16 Noroeste 28 Noroeste 0 -- -- 76
2018-01-15 13:00:00 5.3 15 Noroeste 24 Noroeste 0 -- -- 77
2018-01-15 12:00:00 5.2 14 Noroeste 27 Noroeste 0 -- -- 79
2018-01-15 11:00:00 4.1 11 Noroeste 21 Oeste 0 -- -- 82
2018-01-15 10:00:00 3 10 Oeste 19 Oeste 0 -- -- 87
2018-01-15 09:00:00 2.6 11 Oeste 21 Oeste 0 -- -- 89
2018-01-15 08:00:00 2.4 10 Oeste 18 Oeste 0 -- -- 88
2018-01-15 07:00:00 2.5 5 Noroeste 14 Sudoeste 0 -- -- 88
2018-01-15 06:00:00 3.2 8 Oeste 15 Noroeste 0 -- -- 87
2018-01-15 05:00:00 3.9 8 Oeste 14 Oeste 0 -- -- 85
2018-01-15 04:00:00 3.5 3 Oeste 13 Oeste 0 -- -- 88
2018-01-15 03:00:00 3.7 5 Noroeste 21 Oeste 0 -- -- 87
2018-01-15 02:00:00 3.6 6 Oeste 14 Oeste 0 -- -- 88
2018-01-15 01:00:00 3.5 6 Oeste 15 Noroeste 0 -- -- 88
2018-01-15 00:00:00 3.7 5 Noroeste 16 Noroeste 0 -- -- 87
2018-01-14 23:00:00 4 9 Noroeste 20 Oeste 0 -- -- 86
2018-01-14 22:00:00 4.6 9 Oeste 19 Oeste 0 -- -- 84
2018-01-14 21:00:00 4.6 9 Oeste 21 Noroeste 0 -- -- 84
2018-01-14 20:00:00 4.7 13 Oeste 23 Oeste 0 -- -- 84
2018-01-14 19:00:00 5.1 8 Noroeste 19 Oeste 0 -- -- 83
2018-01-14 18:00:00 5.8 10 Oeste 22 Oeste 0 -- -- 78
2018-01-14 17:00:00 6.1 11 Oeste 27 Noroeste 0 -- -- 78
2018-01-14 16:00:00 6.6 16 Oeste 29 Oeste 0 -- -- 77
2018-01-14 15:00:00 7.5 16 Oeste 31 Sudoeste 0 -- -- 73
2018-01-14 14:00:00 6.7 15 Noroeste 27 Oeste 0 -- -- 76
2018-01-14 13:00:00 5.7 12 Oeste 24 Oeste 0 -- -- 80
2018-01-14 12:00:00 4.5 11 Oeste 25 Oeste 0 -- -- 85
2018-01-14 11:00:00 3.8 12 Oeste 21 Oeste 0 -- -- 88
2018-01-14 10:00:00 3.2 7 Oeste 19 Oeste 0 -- -- 90
2018-01-14 09:00:00 3.1 12 Oeste 22 Oeste 0 -- -- 89
2018-01-14 08:00:00 3 9 Oeste 21 Oeste 0 -- -- 90
2018-01-14 07:00:00 3.1 6 Noroeste 22 Oeste 0 -- -- 91
2018-01-14 06:00:00 3 11 Oeste 19 Noroeste 0 -- -- 92
2018-01-14 05:00:00 2.9 10 Noroeste 19 Oeste 0 -- -- 93
2018-01-14 04:00:00 3.1 11 Oeste 19 Oeste 0 -- -- 93
2018-01-14 03:00:00 2.9 8 Noroeste 20 Oeste 0 -- -- 96
2018-01-14 02:00:00 2.6 9 Oeste 14 Oeste 0.2 -- -- 98
2018-01-14 01:00:00 2.5 5 Oeste 11 Oeste 1.2 -- -- 98
2018-01-14 00:00:00 2.6 6 Oeste 13 Noroeste 1 -- -- 97
2018-01-13 23:00:00 2.9 5 Oeste 10 Noroeste 1 -- -- 97
2018-01-13 22:00:00 3.2 6 Oeste 11 Oeste 1.2 -- -- 96
2018-01-13 21:00:00 3.5 6 Oeste 13 Oeste 0.6 -- -- 94
2018-01-13 20:00:00 3.8 4 Oeste 10 Sudoeste 0 -- -- 91
2018-01-13 19:00:00 3.8 5 Oeste 10 Sudoeste 0 -- -- 88
2018-01-13 18:00:00 4 3 Sudoeste 6 Sudoeste 0 -- -- 89
2018-01-13 17:00:00 4.1 0 Calma 5 Sudeste 0 -- -- 89
2018-01-13 16:00:00 3.9 0 Calma 12 Este 0 -- -- 89
2018-01-13 15:00:00 3.7 3 Sur 9 Este 0 -- -- 90
2018-01-13 14:00:00 3.4 3 Sudeste 23 Este 0 -- -- 90
2018-01-13 13:00:00 3.2 12 Este 28 Este 0 -- -- 89
2018-01-13 12:00:00 3.1 10 Este 26 Este 0 -- -- 92
2018-01-13 11:00:00 2.9 15 Este 25 Sudeste 0 -- -- 93
2018-01-13 10:00:00 2.7 9 Este 20 Sudeste 0 -- -- 95
2018-01-13 09:00:00 2.6 10 Este 18 Sudeste 0 -- -- 95
2018-01-13 08:00:00 2.6 6 Sudeste 15 Este 0 -- -- 95
2018-01-13 07:00:00 2.2 3 Este 10 Este 0 -- -- 95
2018-01-13 06:00:00 1.7 3 Sudeste 10 Este 0 -- -- 96
2018-01-13 05:00:00 1 0 Calma 12 Este 0 -- -- 96
2018-01-13 04:00:00 0.8 0 Calma 7 Este 0 -- -- 95
2018-01-13 03:00:00 0.8 0 Calma 5 Sudoeste 0 -- -- 94
2018-01-13 02:00:00 1.4 3 Sudoeste 7 Sudoeste 0 -- -- 92
2018-01-13 01:00:00 1.9 3 Sur 8 Sudoeste 0 -- -- 91
2018-01-13 00:00:00 2.3 2 Oeste 7 Sudoeste 0 -- -- 90
2018-01-12 23:00:00 3.3 5 Oeste 12 Sudoeste 0 -- -- 87
2018-01-12 22:00:00 3.8 7 Oeste 15 Oeste 0 -- -- 86
2018-01-12 21:00:00 4.1 6 Oeste 17 Oeste 0 -- -- 86
2018-01-12 20:00:00 4.3 10 Oeste 17 Oeste 0 -- -- 85
2018-01-12 19:00:00 5.2 8 Oeste 17 Noroeste 0 -- -- 83
2018-01-12 18:00:00 7.5 5 Noroeste 9 Noroeste 0 -- -- 77
2018-01-12 17:00:00 9.3 4 Noroeste 9 Oeste 0 -- -- 66
2018-01-12 16:00:00 9.7 6 Oeste 19 Noroeste 0 -- -- 60
2018-01-12 15:00:00 9.8 8 Noroeste 19 Noroeste 0 -- -- 66
2018-01-12 14:00:00 8.7 11 Noroeste 20 Noroeste 0 -- -- 75
2018-01-12 13:00:00 7.7 13 Noroeste 21 Noroeste 0 -- -- 79
2018-01-12 12:00:00 6.8 6 Noroeste 12 Oeste 0 -- -- 86
2018-01-12 11:00:00 5.6 7 Oeste 15 Oeste 0 -- -- 91
2018-01-12 10:00:00 5 10 Oeste 16 Oeste 0 -- -- 94
2018-01-12 09:00:00 4.8 0 Calma 15 Oeste 0.2 -- -- 94
2018-01-12 08:00:00 5 7 Oeste 18 Oeste 0 -- -- 93
2018-01-12 07:00:00 5 8 Oeste 15 Oeste 0 -- -- 96
2018-01-12 06:00:00 5.1 6 Oeste 12 Oeste 0 -- -- 95
2018-01-12 05:00:00 4.8 4 Oeste 14 Oeste 0 -- -- 94
2018-01-12 04:00:00 4.6 3 Oeste 8 Oeste 0 -- -- 95
2018-01-12 03:00:00 4.8 4 Oeste 17 Oeste 0 -- -- 95
2018-01-12 02:00:00 4.9 5 Oeste 11 Noroeste 0.2 -- -- 96
2018-01-12 01:00:00 5.4 4 Oeste 19 Oeste 0.2 -- -- 95
2018-01-12 00:00:00 5.4 7 Oeste 12 Sudoeste 1.8 -- -- 95
2018-01-11 23:00:00 5.3 5 Sudoeste 12 Sudoeste 0.8 -- -- 93
2018-01-11 22:00:00 5.1 4 Sur 10 Sudeste 1 -- -- 91
2018-01-11 21:00:00 6.7 8 Este 35 Oeste 0.4 -- -- 80
2018-01-11 20:00:00 7.4 12 Oeste 22 Sudoeste 0 -- -- 72
2018-01-11 19:00:00 6.6 13 Oeste 26 Oeste 0 -- -- 76
2018-01-11 18:00:00 7.4 21 Oeste 33 Oeste 0.2 -- -- 68
2018-01-11 17:00:00 6.3 4 Oeste 26 Oeste 0.2 -- -- 81
2018-01-11 16:00:00 6.7 16 Oeste 39 Oeste 0.2 -- -- 74
2018-01-11 15:00:00 7.8 20 Oeste 43 Oeste 0 -- -- 63
2018-01-11 14:00:00 7.9 24 Oeste 37 Oeste 0 -- -- 60
2018-01-11 13:00:00 7.2 22 Oeste 40 Oeste 0 -- -- 65
2018-01-11 12:00:00 6.2 13 Noroeste 42 Oeste 0 -- -- 74
2018-01-11 11:00:00 5.9 18 Oeste 32 Noroeste 0 -- -- 72
2018-01-11 10:00:00 4.5 11 Oeste 26 Oeste 0 -- -- 78
2018-01-11 09:00:00 3.9 14 Oeste 31 Oeste 0 -- -- 78
2018-01-11 08:00:00 4.2 15 Oeste 34 Oeste 0 -- -- 78
2018-01-11 07:00:00 4.2 18 Oeste 28 Oeste 0 -- -- 80
2018-01-11 06:00:00 4.3 10 Oeste 19 Oeste 0 -- -- 80
2018-01-11 05:00:00 4.7 9 Oeste 26 Oeste 0 -- -- 78
2018-01-11 04:00:00 4.7 15 Oeste 31 Oeste 0 -- -- 77
2018-01-11 03:00:00 4 12 Oeste 19 Oeste 0 -- -- 78
2018-01-11 02:00:00 3.8 12 Oeste 21 Oeste 0 -- -- 79
2018-01-11 01:00:00 3.1 2 Oeste 19 Oeste 0 -- -- 83
2018-01-11 00:00:00 3.7 11 Oeste 31 Oeste 0 -- -- 80
2018-01-10 23:00:00 5 23 Oeste 38 Oeste 0 -- -- 74
2018-01-10 22:00:00 5.6 22 Oeste 37 Oeste 0 -- -- 74
2018-01-10 21:00:00 6 20 Oeste 33 Oeste 0 -- -- 78
2018-01-10 20:00:00 4.1 0 Calma 8 Nordeste 0 -- -- 90
2018-01-10 19:00:00 4.8 7 Sudoeste 14 Sudoeste 0 -- -- 88
2018-01-10 18:00:00 5.3 2 Este 10 Este 0.4 -- -- 85
2018-01-10 17:00:00 6.5 4 Este 15 Sudeste 0.2 -- -- 80
2018-01-10 16:00:00 7.2 8 Este 15 Este 0 -- -- 76
2018-01-10 15:00:00 7.3 5 Este 16 Este 0 -- -- 77
2018-01-10 14:00:00 7.6 10 Este 18 Este 0 -- -- 76
2018-01-10 13:00:00 6.5 6 Este 14 Este 0 -- -- 80
2018-01-10 12:00:00 5.1 3 Este 12 Nordeste 0 -- -- 86
2018-01-10 11:00:00 4.5 5 Este 13 Este 0 -- -- 87
2018-01-10 10:00:00 2.6 4 Este 9 Este 0 -- -- 96
2018-01-10 09:00:00 1.4 0 Calma 3 Noroeste 0 -- -- 95
2018-01-10 08:00:00 1.5 2 Norte 12 Sudoeste 0 -- -- 96
2018-01-10 07:00:00 1.2 0 Calma 6 Este 0 -- -- 95
2018-01-10 06:00:00 1.7 0 Calma 5 Noroeste 0 -- -- 94
2018-01-10 05:00:00 2.6 3 Oeste 8 Noroeste 0 -- -- 93
2018-01-10 04:00:00 2.7 0 Calma 7 Este 0 -- -- 92
2018-01-10 03:00:00 2.7 4 Este 8 Nordeste 0 -- -- 92
2018-01-10 02:00:00 3 4 Este 7 Este 0 -- -- 90
2018-01-10 01:00:00 3.2 4 Este 12 Sudeste 0 -- -- 89
2018-01-10 00:00:00 3 3 Sudeste 11 Sudeste 0 -- -- 89
2018-01-09 23:00:00 2.8 6 Este 12 Este 0 -- -- 89
2018-01-09 22:00:00 2.1 0 Calma 7 Nordeste 0 -- -- 93
2018-01-09 21:00:00 2 4 Este 12 Este 0 -- -- 91
2018-01-09 20:00:00 1.9 4 Sudeste 12 Sudeste 0 -- -- 91
2018-01-09 19:00:00 1.6 6 Sudeste 12 Sudeste 0 -- -- 92
2018-01-09 18:00:00 1.1 4 Nordeste 14 Sudeste 0 -- -- 92
2018-01-09 17:00:00 1 7 Este 18 Sudeste 0 -- -- 91
2018-01-09 16:00:00 1 7 Este 19 Este 0 -- -- 90
2018-01-09 15:00:00 0.9 7 Sudeste 19 Este 0 -- -- 89
2018-01-09 14:00:00 0.8 11 Este 22 Este 0 -- -- 88
2018-01-09 13:00:00 1.1 10 Este 21 Este 0 -- -- 86
2018-01-09 12:00:00 1.3 10 Este 18 Este 0 -- -- 82
2018-01-09 11:00:00 0.2 9 Este 17 Este 0 -- -- 84
2018-01-09 10:00:00 -1.2 4 Este 9 Este 0 -- -- 92
2018-01-09 09:00:00 -2.3 0 Calma 6 Oeste 0 -- -- 91
2018-01-09 08:00:00 -1.6 2 Oeste 4 Oeste 0 -- -- 89
2018-01-09 07:00:00 -0.9 0 Calma 12 Oeste 0 -- -- 86
2018-01-09 06:00:00 0 7 Oeste 13 Oeste 0 -- -- 83
2018-01-09 05:00:00 -0.7 4 Oeste 8 Oeste 0 -- -- 87
2018-01-09 04:00:00 1 5 Oeste 19 Sudoeste 0 -- -- 82
2018-01-09 03:00:00 0.5 8 Oeste 16 Oeste 0 -- -- 85
2018-01-09 02:00:00 0.9 6 Oeste 12 Oeste 0 -- -- 81
2018-01-09 01:00:00 1.8 10 Oeste 24 Oeste 0 -- -- 75
2018-01-09 00:00:00 2.2 12 Oeste 27 Oeste 0 -- -- 73
2018-01-08 23:00:00 2.3 16 Oeste 28 Oeste 0 -- -- 74
2018-01-08 22:00:00 3.1 17 Oeste 29 Oeste 0 -- -- 73
2018-01-08 21:00:00 2.2 5 Noroeste 22 Oeste 0 -- -- 80
2018-01-08 20:00:00 2.5 5 Sudoeste 13 Sudoeste 0 -- -- 81
2018-01-08 19:00:00 3.4 3 Oeste 9 Sudoeste 0 -- -- 79
2018-01-08 18:00:00 5 0 Calma 6 Sudoeste 0 -- -- 73
2018-01-08 17:00:00 6.4 5 Sudoeste 16 Oeste 0 -- -- 67
2018-01-08 16:00:00 6.2 5 Sudoeste 14 Sudoeste 0 -- -- 67
2018-01-08 15:00:00 5.7 6 Sudoeste 18 Oeste 0 -- -- 71
2018-01-08 14:00:00 5 8 Noroeste 14 Noroeste 0 -- -- 68
2018-01-08 13:00:00 4.3 6 Noroeste 10 Oeste 0 -- -- 74
2018-01-08 12:00:00 4.3 5 Sudoeste 13 Sudoeste 0 -- -- 80
2018-01-08 11:00:00 2.9 6 Oeste 11 Oeste 0 -- -- 94
2018-01-08 10:00:00 0.2 0 Calma 3 Oeste 0 -- -- 98
2018-01-08 09:00:00 -0.3 0 Calma 4 Noroeste 0 -- -- 97
2018-01-08 08:00:00 0 0 Calma 3 Noroeste 0 -- -- 96
2018-01-08 07:00:00 0.3 3 Sudoeste 10 Sudoeste 0 -- -- 95
2018-01-08 06:00:00 0.8 6 Sudoeste 14 Sudoeste 0 -- -- 94
2018-01-08 05:00:00 1.9 5 Sudoeste 13 Sudoeste 0 -- -- 94
2018-01-08 04:00:00 2 5 Sudoeste 13 Oeste 0 -- -- 94
2018-01-08 03:00:00 2 6 Oeste 16 Oeste 0 -- -- 95
2018-01-08 02:00:00 1.9 6 Sudoeste 15 Sur 0 -- -- 96
2018-01-08 01:00:00 1.8 7 Sudoeste 12 Sudoeste 0 -- -- 95
2018-01-08 00:00:00 2.4 5 Sudoeste 12 Sudoeste 0 -- -- 94
2018-01-07 23:00:00 2.5 3 Sur 12 Sur 0 -- -- 95
2018-01-07 22:00:00 2.9 0 Calma 10 Sur 0 -- -- 95
2018-01-07 21:00:00 3.2 3 Sudeste 10 Sur 0 -- -- 95
2018-01-07 20:00:00 3.4 6 Este 12 Este 0 -- -- 95
2018-01-07 19:00:00 3.5 7 Este 20 Sudeste 0 -- -- 94
2018-01-07 18:00:00 3.9 14 Este 24 Sudeste 0 -- -- 94
2018-01-07 17:00:00 4.1 10 Este 25 Este 0 -- -- 95
2018-01-07 16:00:00 4.2 12 Este 26 Este 0 -- -- 95
2018-01-07 15:00:00 4.1 12 Este 19 Este 0 -- -- 97
2018-01-07 14:00:00 4 5 Este 8 Este 0 -- -- 97
2018-01-07 13:00:00 3.4 3 Sur 11 Sur 0 -- -- 96
2018-01-07 12:00:00 3 6 Sudoeste 16 Sudoeste 0 -- -- 96
2018-01-07 11:00:00 2.6 5 Sur 18 Sudoeste 0.2 -- -- 96
2018-01-07 10:00:00 2.3 9 Sudoeste 17 Sur 0.2 -- -- 96
2018-01-07 09:00:00 2.1 10 Sudoeste 19 Sur 0.6 -- -- 96
2018-01-07 08:00:00 2.2 10 Sudoeste 20 Sudoeste 0 -- -- 96
2018-01-07 07:00:00 2.1 11 Sudoeste 23 Sudoeste 0 -- -- 97
2018-01-07 06:00:00 1.8 10 Sudoeste 22 Sudoeste 0 -- -- 97
2018-01-07 05:00:00 2 9 Sudoeste 22 Sudoeste 0 -- -- 97
2018-01-07 04:00:00 1.6 10 Oeste 22 Oeste 0 -- -- 98
2018-01-07 03:00:00 1.2 9 Sudoeste 20 Oeste 0.8 -- -- 98
2018-01-07 02:00:00 0.9 8 Sudoeste 19 Oeste 1.2 -- -- 98
2018-01-07 01:00:00 0.8 8 Sudoeste 21 Oeste 3.4 -- -- 98
2018-01-07 00:00:00 1.1 12 Oeste 22 Sudoeste 2.6 -- -- 98
2018-01-06 23:00:00 1.1 15 Oeste 27 Oeste 1.8 -- -- 98
2018-01-06 22:00:00 0.9 14 Oeste 27 Oeste 1.4 -- -- 98
2018-01-06 21:00:00 1 14 Oeste 27 Oeste 1.6 -- -- 98
2018-01-06 20:00:00 0.9 11 Oeste 24 Sudoeste 1.4 -- -- 98
2018-01-06 19:00:00 0.9 12 Oeste 24 Oeste 1.6 -- -- 98
2018-01-06 18:00:00 1.2 11 Oeste 22 Oeste 2.4 -- -- 96
2018-01-06 17:00:00 2 13 Oeste 27 Oeste 1.2 -- -- 96
2018-01-06 16:00:00 2.5 14 Oeste 28 Oeste 0.6 -- -- 95
2018-01-06 15:00:00 2.7 8 Oeste 22 Oeste 0.8 -- -- 96
2018-01-06 14:00:00 2.3 10 Sudoeste 19 Oeste 1.2 -- -- 96
2018-01-06 13:00:00 2.3 10 Sudoeste 17 Sur 1.6 -- -- 95
2018-01-06 12:00:00 3.1 9 Sudoeste 21 Sudoeste 0.6 -- -- 94
2018-01-06 11:00:00 3.2 10 Sudoeste 22 Oeste 0.4 -- -- 93
2018-01-06 10:00:00 3.4 10 Sudoeste 20 Oeste 0.2 -- -- 94
2018-01-06 09:00:00 3.2 7 Sudoeste 17 Sudoeste 0.4 -- -- 95
2018-01-06 08:00:00 3 8 Sudoeste 22 Sudoeste 0 -- -- 95
2018-01-06 07:00:00 2.9 9 Sudoeste 21 Sudoeste 0.2 -- -- 94
2018-01-06 06:00:00 3.8 13 Oeste 23 Oeste 0.8 -- -- 94
2018-01-06 05:00:00 4.6 6 Oeste 13 Sudoeste 1.2 -- -- 93
2018-01-06 04:00:00 5.1 4 Sudoeste 12 Oeste 1.4 -- -- 94
2018-01-06 03:00:00 5.2 4 Oeste 14 Oeste 1.4 -- -- 93
2018-01-06 02:00:00 5.7 5 Sudoeste 9 Sudoeste 1.2 -- -- 93
2018-01-06 01:00:00 5.8 3 Oeste 15 Oeste 1.2 -- -- 92
2018-01-06 00:00:00 6.6 3 Oeste 10 Norte 2.2 -- -- 90
2018-01-05 23:00:00 7.8 6 Noroeste 11 Noroeste 3 -- -- 95
2018-01-05 22:00:00 8.4 0 Calma 4 Sudoeste 1.2 -- -- 93
2018-01-05 21:00:00 8.7 3 Sudoeste 9 Sudoeste 1.2 -- -- 91
2018-01-05 20:00:00 9.3 3 Sudoeste 6 Sudoeste 0.2 -- -- 86
2018-01-05 19:00:00 9.8 2 Sudoeste 8 Oeste 0.2 -- -- 83
2018-01-05 18:00:00 10.5 5 Noroeste 25 Noroeste 0 -- -- 81
2018-01-05 17:00:00 11.5 12 Noroeste 23 Oeste 0 -- -- 70
2018-01-05 16:00:00 11.4 3 Este 8 Sudoeste 0.2 -- -- 80
2018-01-05 15:00:00 11.8 0 Calma 10 Este 0 -- -- 74
2018-01-05 14:00:00 11.2 3 Nordeste 8 Este 0 -- -- 78
2018-01-05 13:00:00 10.9 5 Este 13 Nordeste 0 -- -- 80
2018-01-05 12:00:00 12.5 6 Este 17 Sur 0 -- -- 66
2018-01-05 11:00:00 12.4 2 Sudeste 6 Oeste 0 -- -- 65
2018-01-05 10:00:00 11.7 3 Oeste 9 Oeste 0 -- -- 68
2018-01-05 09:00:00 11.6 6 Oeste 18 Sudoeste 0 -- -- 63
2018-01-05 08:00:00 12 9 Sudoeste 28 Sudoeste 0 -- -- 59
2018-01-05 07:00:00 11.9 15 Oeste 28 Oeste 0 -- -- 57
2018-01-05 06:00:00 11.2 13 Oeste 26 Oeste 0 -- -- 62
2018-01-05 05:00:00 11.5 14 Oeste 30 Oeste 0 -- -- 63
2018-01-05 04:00:00 12.5 17 Oeste 46 Oeste 0 -- -- 61
2018-01-05 03:00:00 12.1 21 Oeste 39 Oeste 0 -- -- 68
2018-01-05 02:00:00 12.1 14 Oeste 24 Oeste 0 -- -- 66
2018-01-05 01:00:00 10.8 4 Oeste 12 Noroeste 0 -- -- 72
2018-01-05 00:00:00 11.3 6 Oeste 13 Sudoeste 0 -- -- 69
2018-01-04 23:00:00 11.8 3 Oeste 15 Oeste 0 -- -- 72
2018-01-04 22:00:00 12.5 5 Oeste 17 Oeste 0 -- -- 69
2018-01-04 21:00:00 13 11 Oeste 19 Noroeste 0 -- -- 65
2018-01-04 20:00:00 14 9 Oeste 28 Oeste 0 -- -- 59
2018-01-04 19:00:00 13.5 5 Sudoeste 22 Oeste 0 -- -- 57
2018-01-04 18:00:00 14.1 4 Sur 49 Oeste 0 -- -- 58
2018-01-04 17:00:00 15 27 Oeste 50 Oeste 0 -- -- 53
2018-01-04 16:00:00 15.4 27 Oeste 54 Oeste 0 -- -- 54
2018-01-04 15:00:00 15.8 27 Oeste 51 Oeste 0 -- -- 55
2018-01-04 14:00:00 15.7 22 Noroeste 46 Noroeste 0 -- -- 56
2018-01-04 13:00:00 15.6 27 Oeste 50 Noroeste 0 -- -- 58
2018-01-04 12:00:00 15.6 24 Noroeste 50 Noroeste 0 -- -- 60
2018-01-04 11:00:00 14.8 26 Oeste 48 Noroeste 0 -- -- 67
2018-01-04 10:00:00 13.8 25 Noroeste 45 Noroeste 0 -- -- 72
2018-01-04 09:00:00 13.2 19 Noroeste 45 Oeste 0 -- -- 75
2018-01-04 08:00:00 12.6 28 Oeste 45 Oeste 0 -- -- 78
2018-01-04 07:00:00 12 8 Noroeste 18 Oeste 0 -- -- 81
2018-01-04 06:00:00 12.5 11 Oeste 23 Oeste 0 -- -- 78
2018-01-04 05:00:00 12.6 10 Noroeste 23 Oeste 0 -- -- 81
2018-01-04 04:00:00 13.6 15 Noroeste 32 Noroeste 0 -- -- 78
2018-01-04 03:00:00 14.2 17 Noroeste 36 Noroeste 0 -- -- 77
2018-01-04 02:00:00 13.6 16 Noroeste 33 Oeste 0 -- -- 81
2018-01-04 01:00:00 13.4 15 Oeste 26 Oeste 0 -- -- 82
2018-01-04 00:00:00 13.5 13 Noroeste 27 Oeste 0 -- -- 82
2018-01-03 23:00:00 14.5 18 Oeste 32 Oeste 0 -- -- 77
2018-01-03 22:00:00 14.5 10 Noroeste 21 Oeste 0 -- -- 79
2018-01-03 21:00:00 14.9 9 Noroeste 19 Noroeste 0 -- -- 78
2018-01-03 20:00:00 15.1 9 Noroeste 25 Oeste 0 -- -- 76
2018-01-03 19:00:00 15.9 11 Oeste 22 Oeste 0 -- -- 70
2018-01-03 18:00:00 16.3 11 Oeste 29 Oeste 0 -- -- 71
2018-01-03 17:00:00 16.8 14 Oeste 32 Noroeste 0 -- -- 69
2018-01-03 16:00:00 15.6 8 Noroeste 38 Noroeste 0 -- -- 77
2018-01-03 15:00:00 15.6 16 Noroeste 42 Noroeste 0 -- -- 76
2018-01-03 14:00:00 16.2 22 Noroeste 42 Noroeste 0 -- -- 72
2018-01-03 13:00:00 16 20 Noroeste 36 Noroeste 0 -- -- 73
2018-01-03 12:00:00 16.1 17 Noroeste 35 Noroeste 0 -- -- 74
2018-01-03 11:00:00 15.1 15 Noroeste 27 Noroeste 0 -- -- 77
2018-01-03 10:00:00 14.2 14 Noroeste 30 Noroeste 0 -- -- 80
2018-01-03 09:00:00 14.2 20 Noroeste 31 Noroeste 0 -- -- 79
2018-01-03 08:00:00 14.1 18 Noroeste 36 Noroeste 0 -- -- 79
2018-01-03 07:00:00 14.1 20 Noroeste 36 Noroeste 0 -- -- 78
2018-01-03 06:00:00 13.8 12 Noroeste 28 Noroeste 0 -- -- 80
2018-01-03 05:00:00 12.5 10 Oeste 19 Oeste 0 -- -- 86
2018-01-03 04:00:00 12.5 9 Oeste 19 Noroeste 0 -- -- 86
2018-01-03 03:00:00 13.1 12 Noroeste 33 Noroeste 0 -- -- 83
2018-01-03 02:00:00 13 11 Noroeste 28 Noroeste 0 -- -- 83
2018-01-03 01:00:00 13 16 Oeste 33 Noroeste 0 -- -- 82
2018-01-03 00:00:00 13.2 17 Noroeste 32 Oeste 0 -- -- 80
2018-01-02 23:00:00 13.7 18 Noroeste 32 Oeste 0 -- -- 78
2018-01-02 22:00:00 13.7 21 Oeste 34 Oeste 0 -- -- 77
2018-01-02 21:00:00 12.9 10 Noroeste 18 Noroeste 0 -- -- 79
2018-01-02 20:00:00 13.2 11 Oeste 23 Sudoeste 0 -- -- 77
2018-01-02 19:00:00 13.4 14 Oeste 42 Noroeste 0 -- -- 75
2018-01-02 18:00:00 13.5 22 Noroeste 56 Noroeste 0 -- -- 74
2018-01-02 17:00:00 13.7 24 Noroeste 51 Oeste 0 -- -- 72
2018-01-02 16:00:00 13.6 27 Noroeste 50 Oeste 0 -- -- 71
2018-01-02 15:00:00 13.3 23 Noroeste 44 Oeste 0 -- -- 72
2018-01-02 14:00:00 12.9 24 Noroeste 47 Noroeste 0.2 -- -- 74
2018-01-02 13:00:00 11.7 24 Noroeste 44 Oeste 0.2 -- -- 78
2018-01-02 12:00:00 11.3 22 Noroeste 40 Noroeste 0 -- -- 78
2018-01-02 11:00:00 10.8 19 Noroeste 37 Noroeste 0 -- -- 75
2018-01-02 10:00:00 10.6 20 Noroeste 36 Oeste 0 -- -- 73
2018-01-02 09:00:00 10.3 21 Oeste 42 Oeste 0 -- -- 74
2018-01-02 08:00:00 10.6 21 Oeste 37 Noroeste 0 -- -- 73
2018-01-02 07:00:00 9.8 22 Oeste 31 Oeste 0 -- -- 76
2018-01-02 06:00:00 9.5 13 Noroeste 28 Noroeste 0 -- -- 80
2018-01-02 05:00:00 9.9 14 Noroeste 27 Oeste 0 -- -- 77
2018-01-02 04:00:00 9.8 13 Noroeste 30 Oeste 0 -- -- 81
2018-01-02 03:00:00 9.7 10 Noroeste 21 Noroeste 0 -- -- 87
2018-01-02 02:00:00 9.5 8 Noroeste 19 Noroeste 0 -- -- 89
2018-01-02 01:00:00 9.8 8 Oeste 18 Noroeste 0 -- -- 85
2018-01-02 00:00:00 9.8 9 Noroeste 28 Noroeste 0 -- -- 86
2018-01-01 23:00:00 9.9 9 Oeste 27 Noroeste 0.2 -- -- 87
2018-01-01 22:00:00 10.9 15 Noroeste 31 Oeste 0.2 -- -- 81
2018-01-01 21:00:00 11.3 13 Oeste 37 Oeste 0 -- -- 76
2018-01-01 20:00:00 11.4 14 Oeste 38 Oeste 0.2 -- -- 75
2018-01-01 19:00:00 11.5 20 Oeste 49 Oeste 0 -- -- 75
2018-01-01 18:00:00 11.9 26 Oeste 58 Oeste 0 -- -- 68
2018-01-01 17:00:00 12.3 33 Oeste 70 Oeste 0 -- -- 64
2018-01-01 16:00:00 12.9 31 Oeste 71 Sudoeste 0 -- -- 58
2018-01-01 15:00:00 12.9 30 Oeste 62 Oeste 0 -- -- 56
2018-01-01 14:00:00 12.7 26 Oeste 49 Oeste 0 -- -- 54
2018-01-01 13:00:00 12.3 28 Oeste 45 Oeste 0 -- -- 52
2018-01-01 12:00:00 10.7 3 Oeste 12 Nordeste 0 -- -- 60
2018-01-01 11:00:00 9.9 7 Oeste 31 Oeste 0 -- -- 60
2018-01-01 10:00:00 7.6 17 Oeste 36 Oeste 0 -- -- 70
2018-01-01 09:00:00 6 18 Oeste 30 Oeste 0 -- -- 72
2018-01-01 08:00:00 3.9 14 Oeste 26 Oeste 0 -- -- 79
2018-01-01 07:00:00 3.1 2 Sudoeste 14 Oeste 0 -- -- 83
2018-01-01 06:00:00 4.1 8 Oeste 15 Noroeste 0 -- -- 78
2018-01-01 05:00:00 3.8 5 Oeste 14 Oeste 0 -- -- 81
2018-01-01 04:00:00 4 9 Oeste 19 Oeste 0 -- -- 80
2018-01-01 03:00:00 4.1 10 Oeste 22 Noroeste 0 -- -- 80
2018-01-01 02:00:00 4.8 13 Noroeste 27 Oeste 0 -- -- 77
2018-01-01 01:00:00 4.6 10 Noroeste 23 Noroeste 0 -- -- 77
2018-01-01 00:00:00 4.8 7 Noroeste 18 Noroeste 0 -- -- 80
2017-12-31 23:00:00 6.1 8 Noroeste 33 Oeste 0 -- -- 79
2017-12-31 22:00:00 7 13 Oeste 23 Oeste 0 -- -- 84
2017-12-31 21:00:00 6.7 9 Noroeste 28 Oeste 0.4 -- -- 91
2017-12-31 20:00:00 6.4 11 Oeste 25 Oeste 0.8 -- -- 92
2017-12-31 19:00:00 6.9 8 Oeste 32 Oeste 1.2 -- -- 87
2017-12-31 18:00:00 8.8 13 Noroeste 28 Oeste 2.2 -- -- 91
2017-12-31 17:00:00 9.5 2 Sudoeste 13 Sudeste 0.2 -- -- 86
2017-12-31 16:00:00 10.2 5 Este 14 Este 0 -- -- 79
2017-12-31 15:00:00 10.4 4 Norte 9 Este 0 -- -- 78
2017-12-31 14:00:00 9.2 3 Este 13 Este 0 -- -- 82
2017-12-31 13:00:00 8.5 5 Este 13 Este 0 -- -- 86
2017-12-31 12:00:00 6.7 4 Noroeste 6 Noroeste 0 -- -- 93
2017-12-31 11:00:00 4.1 2 Sudeste 8 Sudeste 0 -- -- 98
2017-12-31 10:00:00 2.1 3 Sudeste 8 Sudoeste 0 -- -- 97
2017-12-31 09:00:00 2.3 2 Sudoeste 4 Sudoeste 0 -- -- 96
2017-12-31 08:00:00 2.7 2 Sudoeste 4 Oeste 0 -- -- 96
2017-12-31 07:00:00 3.1 2 Sur 5 Noroeste 0 -- -- 96
2017-12-31 06:00:00 3.8 0 Calma 5 Este 0 -- -- 95
2017-12-31 05:00:00 3.8 2 Este 8 Sudoeste 0 -- -- 94
2017-12-31 04:00:00 4.2 3 Sudoeste 8 Sudoeste 0 -- -- 93
2017-12-31 03:00:00 4.6 3 Oeste 6 Oeste 0 -- -- 93
2017-12-31 02:00:00 4.8 3 Sudoeste 5 Sudoeste 0 -- -- 91
2017-12-31 01:00:00 5.4 0 Calma 4 Oeste 0 -- -- 91